sensor_id;sensor_type;location;lat;lon;timestamp;temperature;humidity
5130;DHT22;2583;50.946;6.954;2022-12-18T00:00:48;-3.20;99.90
5130;DHT22;2583;50.946;6.954;2022-12-18T00:03:15;-3.20;99.90
5130;DHT22;2583;50.946;6.954;2022-12-18T00:05:51;-3.20;99.90
5130;DHT22;2583;50.946;6.954;2022-12-18T00:08:19;-3.20;99.90
5130;DHT22;2583;50.946;6.954;2022-12-18T00:10:46;-3.20;99.90
5130;DHT22;2583;50.946;6.954;2022-12-18T00:13:13;-3.20;99.90
5130;DHT22;2583;50.946;6.954;2022-12-18T00:15:40;-3.30;99.90
5130;DHT22;2583;50.946;6.954;2022-12-18T00:18:07;-3.30;99.90
5130;DHT22;2583;50.946;6.954;2022-12-18T00:20:40;-3.20;99.90
5130;DHT22;2583;50.946;6.954;2022-12-18T00:23:07;-3.20;99.90
5130;DHT22;2583;50.946;6.954;2022-12-18T00:25:35;-3.20;99.90
5130;DHT22;2583;50.946;6.954;2022-12-18T00:28:03;-3.30;99.90
5130;DHT22;2583;50.946;6.954;2022-12-18T00:30:30;-3.30;99.90
5130;DHT22;2583;50.946;6.954;2022-12-18T00:32:57;-3.20;99.90
5130;DHT22;2583;50.946;6.954;2022-12-18T00:35:24;-3.30;99.90
5130;DHT22;2583;50.946;6.954;2022-12-18T00:37:51;-3.20;99.90
5130;DHT22;2583;50.946;6.954;2022-12-18T00:40:18;-3.30;99.90
5130;DHT22;2583;50.946;6.954;2022-12-18T00:42:44;-3.30;99.90
5130;DHT22;2583;50.946;6.954;2022-12-18T00:45:29;-3.30;99.90
5130;DHT22;2583;50.946;6.954;2022-12-18T00:47:56;-3.30;99.90
5130;DHT22;2583;50.946;6.954;2022-12-18T00:50:24;-3.30;99.90
5130;DHT22;2583;50.946;6.954;2022-12-18T00:52:52;-3.30;99.90
5130;DHT22;2583;50.946;6.954;2022-12-18T00:55:18;-3.30;99.90
5130;DHT22;2583;50.946;6.954;2022-12-18T00:57:45;-3.40;99.90
5130;DHT22;2583;50.946;6.954;2022-12-18T01:00:14;-3.40;99.90
5130;DHT22;2583;50.946;6.954;2022-12-18T01:02:41;-3.30;99.90
5130;DHT22;2583;50.946;6.954;2022-12-18T01:05:10;-3.30;99.90
5130;DHT22;2583;50.946;6.954;2022-12-18T01:07:38;-3.30;99.90
5130;DHT22;2583;50.946;6.954;2022-12-18T01:10:06;-3.30;99.90
5130;DHT22;2583;50.946;6.954;2022-12-18T01:12:33;-3.30;99.90
5130;DHT22;2583;50.946;6.954;2022-12-18T01:15:00;-3.30;99.90
5130;DHT22;2583;50.946;6.954;2022-12-18T01:17:27;-3.30;99.90
5130;DHT22;2583;50.946;6.954;2022-12-18T01:19:53;-3.30;99.90
5130;DHT22;2583;50.946;6.954;2022-12-18T01:22:20;-3.20;99.90
5130;DHT22;2583;50.946;6.954;2022-12-18T01:24:47;-3.30;99.90
5130;DHT22;2583;50.946;6.954;2022-12-18T01:27:14;-3.30;99.90
5130;DHT22;2583;50.946;6.954;2022-12-18T01:29:41;-3.30;99.90
5130;DHT22;2583;50.946;6.954;2022-12-18T01:32:09;-3.30;99.90
5130;DHT22;2583;50.946;6.954;2022-12-18T01:34:37;-3.30;99.90
5130;DHT22;2583;50.946;6.954;2022-12-18T01:37:04;-3.30;99.90
5130;DHT22;2583;50.946;6.954;2022-12-18T01:39:31;-3.40;99.90
5130;DHT22;2583;50.946;6.954;2022-12-18T01:42:12;-3.40;99.90
5130;DHT22;2583;50.946;6.954;2022-12-18T01:47:45;-3.30;99.90
5130;DHT22;2583;50.946;6.954;2022-12-18T01:52:56;-3.30;99.90
5130;DHT22;2583;50.946;6.954;2022-12-18T01:55:26;-3.40;99.90
5130;DHT22;2583;50.946;6.954;2022-12-18T01:57:57;-3.40;99.90
5130;DHT22;2583;50.946;6.954;2022-12-18T02:00:25;-3.40;99.90
5130;DHT22;2583;50.946;6.954;2022-12-18T02:02:53;-3.40;99.90
5130;DHT22;2583;50.946;6.954;2022-12-18T02:06:06;-3.50;99.90
5130;DHT22;2583;50.946;6.954;2022-12-18T02:13:58;-3.40;99.90
5130;DHT22;2583;50.946;6.954;2022-12-18T02:27:30;-3.30;99.90
5130;DHT22;2583;50.946;6.954;2022-12-18T02:30:00;-3.40;99.90
5130;DHT22;2583;50.946;6.954;2022-12-18T02:32:39;-3.40;99.90
5130;DHT22;2583;50.946;6.954;2022-12-18T02:35:12;-3.40;99.90
5130;DHT22;2583;50.946;6.954;2022-12-18T02:37:42;-3.40;99.90
5130;DHT22;2583;50.946;6.954;2022-12-18T02:40:11;-3.40;99.90
5130;DHT22;2583;50.946;6.954;2022-12-18T02:42:38;-3.40;99.90
5130;DHT22;2583;50.946;6.954;2022-12-18T02:45:05;-3.40;99.90
5130;DHT22;2583;50.946;6.954;2022-12-18T02:47:36;-3.40;99.90
5130;DHT22;2583;50.946;6.954;2022-12-18T02:50:44;-3.40;99.90
5130;DHT22;2583;50.946;6.954;2022-12-18T02:53:22;-3.40;99.90
5130;DHT22;2583;50.946;6.954;2022-12-18T02:56:30;-3.40;99.90
5130;DHT22;2583;50.946;6.954;2022-12-18T02:59:18;-3.40;99.90
5130;DHT22;2583;50.946;6.954;2022-12-18T03:02:04;-3.40;99.90
5130;DHT22;2583;50.946;6.954;2022-12-18T03:04:41;-3.30;99.90
5130;DHT22;2583;50.946;6.954;2022-12-18T03:07:18;-3.40;99.90
5130;DHT22;2583;50.946;6.954;2022-12-18T03:09:48;-3.40;99.90
5130;DHT22;2583;50.946;6.954;2022-12-18T03:15:27;-3.40;99.90
5130;DHT22;2583;50.946;6.954;2022-12-18T03:18:05;-3.40;99.90
5130;DHT22;2583;50.946;6.954;2022-12-18T03:20:34;-3.40;99.90
5130;DHT22;2583;50.946;6.954;2022-12-18T03:23:17;-3.40;99.90
5130;DHT22;2583;50.946;6.954;2022-12-18T03:25:54;-3.40;99.90
5130;DHT22;2583;50.946;6.954;2022-12-18T03:28:23;-3.30;99.90
5130;DHT22;2583;50.946;6.954;2022-12-18T03:30:54;-3.30;99.90
5130;DHT22;2583;50.946;6.954;2022-12-18T03:33:27;-3.40;99.90
5130;DHT22;2583;50.946;6.954;2022-12-18T03:35:55;-3.40;99.90
5130;DHT22;2583;50.946;6.954;2022-12-18T03:38:22;-3.40;99.90
5130;DHT22;2583;50.946;6.954;2022-12-18T03:43:55;-3.40;99.90
5130;DHT22;2583;50.946;6.954;2022-12-18T03:46:30;-3.50;99.90
5130;DHT22;2583;50.946;6.954;2022-12-18T03:49:10;-3.50;99.90
5130;DHT22;2583;50.946;6.954;2022-12-18T03:54:09;-3.50;99.90
5130;DHT22;2583;50.946;6.954;2022-12-18T03:56:41;-3.50;99.90
5130;DHT22;2583;50.946;6.954;2022-12-18T03:59:10;-3.40;99.90
5130;DHT22;2583;50.946;6.954;2022-12-18T04:01:41;-3.40;99.90
5130;DHT22;2583;50.946;6.954;2022-12-18T04:04:09;-3.40;99.90
5130;DHT22;2583;50.946;6.954;2022-12-18T04:06:37;-3.40;99.90
5130;DHT22;2583;50.946;6.954;2022-12-18T04:09:05;-3.40;99.90
5130;DHT22;2583;50.946;6.954;2022-12-18T04:11:32;-3.40;99.90
5130;DHT22;2583;50.946;6.954;2022-12-18T04:13:59;-3.50;99.90
5130;DHT22;2583;50.946;6.954;2022-12-18T04:16:31;-3.40;99.90
5130;DHT22;2583;50.946;6.954;2022-12-18T04:18:58;-3.40;99.90
5130;DHT22;2583;50.946;6.954;2022-12-18T04:21:25;-3.40;99.90
5130;DHT22;2583;50.946;6.954;2022-12-18T04:23:52;-3.40;99.90
5130;DHT22;2583;50.946;6.954;2022-12-18T04:26:19;-3.40;99.90
5130;DHT22;2583;50.946;6.954;2022-12-18T04:28:46;-3.40;99.90
5130;DHT22;2583;50.946;6.954;2022-12-18T04:31:13;-3.40;99.90
5130;DHT22;2583;50.946;6.954;2022-12-18T04:33:40;-3.50;99.90
5130;DHT22;2583;50.946;6.954;2022-12-18T04:36:07;-3.40;99.90
5130;DHT22;2583;50.946;6.954;2022-12-18T04:38:34;-3.40;99.90
5130;DHT22;2583;50.946;6.954;2022-12-18T04:41:01;-3.50;99.90
5130;DHT22;2583;50.946;6.954;2022-12-18T04:43:28;-3.50;99.90
5130;DHT22;2583;50.946;6.954;2022-12-18T04:46:04;-3.50;99.90
5130;DHT22;2583;50.946;6.954;2022-12-18T04:48:32;-3.50;99.90
5130;DHT22;2583;50.946;6.954;2022-12-18T04:50:59;-3.50;99.90
5130;DHT22;2583;50.946;6.954;2022-12-18T04:53:26;-3.50;99.90
5130;DHT22;2583;50.946;6.954;2022-12-18T04:56:10;-3.50;99.90
5130;DHT22;2583;50.946;6.954;2022-12-18T04:58:39;-3.50;99.90
5130;DHT22;2583;50.946;6.954;2022-12-18T05:01:06;-3.60;99.90
5130;DHT22;2583;50.946;6.954;2022-12-18T05:03:35;-3.60;99.90
5130;DHT22;2583;50.946;6.954;2022-12-18T05:06:03;-3.60;99.90
5130;DHT22;2583;50.946;6.954;2022-12-18T05:08:30;-3.60;99.90
5130;DHT22;2583;50.946;6.954;2022-12-18T05:13:27;-3.60;99.90
5130;DHT22;2583;50.946;6.954;2022-12-18T05:15:54;-3.60;99.90
5130;DHT22;2583;50.946;6.954;2022-12-18T05:18:22;-3.70;99.90
5130;DHT22;2583;50.946;6.954;2022-12-18T05:20:53;-3.60;99.90
5130;DHT22;2583;50.946;6.954;2022-12-18T05:23:22;-3.60;99.90
5130;DHT22;2583;50.946;6.954;2022-12-18T05:26:04;-3.60;99.90
5130;DHT22;2583;50.946;6.954;2022-12-18T05:28:32;-3.60;99.90
5130;DHT22;2583;50.946;6.954;2022-12-18T05:31:01;-3.60;99.90
5130;DHT22;2583;50.946;6.954;2022-12-18T05:33:31;-3.60;99.90
5130;DHT22;2583;50.946;6.954;2022-12-18T05:36:00;-3.60;99.90
5130;DHT22;2583;50.946;6.954;2022-12-18T05:38:28;-3.60;99.90
5130;DHT22;2583;50.946;6.954;2022-12-18T05:40:56;-3.60;99.90
5130;DHT22;2583;50.946;6.954;2022-12-18T05:43:25;-3.60;99.90
5130;DHT22;2583;50.946;6.954;2022-12-18T05:45:52;-3.60;99.90
5130;DHT22;2583;50.946;6.954;2022-12-18T05:48:19;-3.60;99.90
5130;DHT22;2583;50.946;6.954;2022-12-18T05:50:48;-3.70;99.90
5130;DHT22;2583;50.946;6.954;2022-12-18T05:53:17;-3.70;99.90
5130;DHT22;2583;50.946;6.954;2022-12-18T05:55:44;-3.70;99.90
5130;DHT22;2583;50.946;6.954;2022-12-18T05:58:12;-3.70;99.90
5130;DHT22;2583;50.946;6.954;2022-12-18T06:00:41;-3.70;99.90
5130;DHT22;2583;50.946;6.954;2022-12-18T06:03:10;-3.70;99.90
5130;DHT22;2583;50.946;6.954;2022-12-18T06:05:38;-3.70;99.90
5130;DHT22;2583;50.946;6.954;2022-12-18T06:08:05;-3.70;99.90
5130;DHT22;2583;50.946;6.954;2022-12-18T06:10:32;-3.70;99.90
5130;DHT22;2583;50.946;6.954;2022-12-18T06:12:59;-3.70;99.90
5130;DHT22;2583;50.946;6.954;2022-12-18T06:15:26;-3.70;99.90
5130;DHT22;2583;50.946;6.954;2022-12-18T06:17:53;-3.70;99.90
5130;DHT22;2583;50.946;6.954;2022-12-18T06:20:20;-3.60;99.90
5130;DHT22;2583;50.946;6.954;2022-12-18T06:22:47;-3.60;99.90
5130;DHT22;2583;50.946;6.954;2022-12-18T06:25:15;-3.60;99.90
5130;DHT22;2583;50.946;6.954;2022-12-18T06:27:42;-3.50;99.90
5130;DHT22;2583;50.946;6.954;2022-12-18T06:30:10;-3.50;99.90
5130;DHT22;2583;50.946;6.954;2022-12-18T06:32:37;-3.50;99.90
5130;DHT22;2583;50.946;6.954;2022-12-18T06:35:04;-3.40;99.90
5130;DHT22;2583;50.946;6.954;2022-12-18T06:37:31;-3.40;99.90
5130;DHT22;2583;50.946;6.954;2022-12-18T06:39:58;-3.40;99.90
5130;DHT22;2583;50.946;6.954;2022-12-18T06:42:25;-3.40;99.90
5130;DHT22;2583;50.946;6.954;2022-12-18T06:44:52;-3.40;99.90
5130;DHT22;2583;50.946;6.954;2022-12-18T06:47:18;-3.40;99.90
5130;DHT22;2583;50.946;6.954;2022-12-18T06:49:45;-3.40;99.90
5130;DHT22;2583;50.946;6.954;2022-12-18T06:52:12;-3.40;99.90
5130;DHT22;2583;50.946;6.954;2022-12-18T06:54:39;-3.40;99.90
5130;DHT22;2583;50.946;6.954;2022-12-18T06:57:06;-3.40;99.90
5130;DHT22;2583;50.946;6.954;2022-12-18T06:59:32;-3.50;99.90
5130;DHT22;2583;50.946;6.954;2022-12-18T07:01:59;-3.50;99.90
5130;DHT22;2583;50.946;6.954;2022-12-18T07:04:29;-3.50;99.90
5130;DHT22;2583;50.946;6.954;2022-12-18T07:06:56;-3.50;99.90
5130;DHT22;2583;50.946;6.954;2022-12-18T07:09:24;-3.50;99.90
5130;DHT22;2583;50.946;6.954;2022-12-18T07:11:52;-3.60;99.90
5130;DHT22;2583;50.946;6.954;2022-12-18T07:14:19;-3.60;99.90
5130;DHT22;2583;50.946;6.954;2022-12-18T07:16:45;-3.60;99.90
5130;DHT22;2583;50.946;6.954;2022-12-18T07:19:12;-3.70;99.90
5130;DHT22;2583;50.946;6.954;2022-12-18T07:21:39;-3.70;99.90
5130;DHT22;2583;50.946;6.954;2022-12-18T07:24:06;-3.70;99.90
5130;DHT22;2583;50.946;6.954;2022-12-18T07:26:33;-3.70;99.90
5130;DHT22;2583;50.946;6.954;2022-12-18T07:29:00;-3.70;99.90
5130;DHT22;2583;50.946;6.954;2022-12-18T07:31:27;-3.70;99.90
5130;DHT22;2583;50.946;6.954;2022-12-18T07:33:54;-3.70;99.90
5130;DHT22;2583;50.946;6.954;2022-12-18T07:36:23;-3.80;99.90
5130;DHT22;2583;50.946;6.954;2022-12-18T07:38:51;-3.80;99.90
5130;DHT22;2583;50.946;6.954;2022-12-18T07:41:21;-3.90;99.90
5130;DHT22;2583;50.946;6.954;2022-12-18T07:43:48;-3.90;99.90
5130;DHT22;2583;50.946;6.954;2022-12-18T07:46:15;-3.90;99.90
5130;DHT22;2583;50.946;6.954;2022-12-18T07:48:43;-3.90;99.90
5130;DHT22;2583;50.946;6.954;2022-12-18T07:51:15;-4.00;99.90
5130;DHT22;2583;50.946;6.954;2022-12-18T07:53:43;-3.90;99.90
5130;DHT22;2583;50.946;6.954;2022-12-18T07:56:11;-4.00;99.90
5130;DHT22;2583;50.946;6.954;2022-12-18T07:58:57;-3.90;99.90
5130;DHT22;2583;50.946;6.954;2022-12-18T08:01:24;-3.90;99.90
5130;DHT22;2583;50.946;6.954;2022-12-18T08:03:51;-3.80;99.90
5130;DHT22;2583;50.946;6.954;2022-12-18T08:06:18;-3.80;99.90
5130;DHT22;2583;50.946;6.954;2022-12-18T08:08:54;-3.80;99.90
5130;DHT22;2583;50.946;6.954;2022-12-18T08:11:24;-3.90;99.90
5130;DHT22;2583;50.946;6.954;2022-12-18T08:13:52;-3.80;99.90
5130;DHT22;2583;50.946;6.954;2022-12-18T08:16:20;-3.80;99.90
5130;DHT22;2583;50.946;6.954;2022-12-18T08:18:47;-3.80;99.90
5130;DHT22;2583;50.946;6.954;2022-12-18T08:21:33;-3.70;99.90
5130;DHT22;2583;50.946;6.954;2022-12-18T08:24:01;-3.70;99.90
5130;DHT22;2583;50.946;6.954;2022-12-18T08:26:30;-3.70;99.90
5130;DHT22;2583;50.946;6.954;2022-12-18T08:28:59;-3.60;99.90
5130;DHT22;2583;50.946;6.954;2022-12-18T08:31:27;-3.60;99.90
5130;DHT22;2583;50.946;6.954;2022-12-18T08:33:55;-3.60;99.90
5130;DHT22;2583;50.946;6.954;2022-12-18T08:36:23;-3.60;99.90
5130;DHT22;2583;50.946;6.954;2022-12-18T08:38:51;-3.50;99.90
5130;DHT22;2583;50.946;6.954;2022-12-18T08:41:18;-3.40;99.90
5130;DHT22;2583;50.946;6.954;2022-12-18T08:43:45;-3.30;99.90
5130;DHT22;2583;50.946;6.954;2022-12-18T08:46:43;-3.30;99.90
5130;DHT22;2583;50.946;6.954;2022-12-18T08:49:11;-3.20;99.90
5130;DHT22;2583;50.946;6.954;2022-12-18T08:51:38;-3.10;99.90
5130;DHT22;2583;50.946;6.954;2022-12-18T08:54:06;-3.10;99.90
5130;DHT22;2583;50.946;6.954;2022-12-18T08:56:34;-3.00;99.90
5130;DHT22;2583;50.946;6.954;2022-12-18T08:59:01;-2.90;99.90
5130;DHT22;2583;50.946;6.954;2022-12-18T09:01:28;-2.80;99.90
5130;DHT22;2583;50.946;6.954;2022-12-18T09:03:56;-2.70;99.90
5130;DHT22;2583;50.946;6.954;2022-12-18T09:06:23;-2.60;99.90
5130;DHT22;2583;50.946;6.954;2022-12-18T09:08:50;-2.60;99.90
5130;DHT22;2583;50.946;6.954;2022-12-18T09:11:34;-2.50;99.90
5130;DHT22;2583;50.946;6.954;2022-12-18T09:14:01;-2.50;99.40
5130;DHT22;2583;50.946;6.954;2022-12-18T09:16:29;-2.40;99.30
5130;DHT22;2583;50.946;6.954;2022-12-18T09:18:59;-2.30;98.60
5130;DHT22;2583;50.946;6.954;2022-12-18T09:21:29;-2.30;98.20
5130;DHT22;2583;50.946;6.954;2022-12-18T09:23:56;-2.20;97.70
5130;DHT22;2583;50.946;6.954;2022-12-18T09:26:24;-2.10;97.40
5130;DHT22;2583;50.946;6.954;2022-12-18T09:28:52;-2.00;96.40
5130;DHT22;2583;50.946;6.954;2022-12-18T09:31:21;-2.00;96.10
5130;DHT22;2583;50.946;6.954;2022-12-18T09:33:48;-1.90;95.40
5130;DHT22;2583;50.946;6.954;2022-12-18T09:36:17;-1.80;94.80
5130;DHT22;2583;50.946;6.954;2022-12-18T09:38:44;-1.80;94.10
5130;DHT22;2583;50.946;6.954;2022-12-18T09:44:00;-1.60;93.90
5130;DHT22;2583;50.946;6.954;2022-12-18T09:46:33;-1.50;92.30
5130;DHT22;2583;50.946;6.954;2022-12-18T09:49:05;-1.50;91.50
5130;DHT22;2583;50.946;6.954;2022-12-18T09:51:45;-1.40;91.20
5130;DHT22;2583;50.946;6.954;2022-12-18T09:54:30;-1.30;91.10
5130;DHT22;2583;50.946;6.954;2022-12-18T09:56:59;-1.20;91.40
5130;DHT22;2583;50.946;6.954;2022-12-18T09:59:36;-1.10;90.20
5130;DHT22;2583;50.946;6.954;2022-12-18T10:02:21;-1.10;87.20
5130;DHT22;2583;50.946;6.954;2022-12-18T10:07:40;-1.00;83.40
5130;DHT22;2583;50.946;6.954;2022-12-18T10:15:38;-0.90;79.50
5130;DHT22;2583;50.946;6.954;2022-12-18T10:20:54;-0.80;77.80
5130;DHT22;2583;50.946;6.954;2022-12-18T10:23:39;-0.70;79.00
5130;DHT22;2583;50.946;6.954;2022-12-18T10:26:13;-0.80;75.10
5130;DHT22;2583;50.946;6.954;2022-12-18T10:28:42;-0.70;75.10
5130;DHT22;2583;50.946;6.954;2022-12-18T10:31:17;-0.60;75.70
5130;DHT22;2583;50.946;6.954;2022-12-18T10:33:44;-0.50;70.80
5130;DHT22;2583;50.946;6.954;2022-12-18T10:36:11;-0.50;71.10
5130;DHT22;2583;50.946;6.954;2022-12-18T10:38:38;-0.40;70.00
5130;DHT22;2583;50.946;6.954;2022-12-18T10:41:08;-0.40;60.10
5130;DHT22;2583;50.946;6.954;2022-12-18T10:44:19;-0.30;1.00
5130;DHT22;2583;50.946;6.954;2022-12-18T10:46:48;-0.20;1.00
5130;DHT22;2583;50.946;6.954;2022-12-18T10:49:35;-0.10;1.00
5130;DHT22;2583;50.946;6.954;2022-12-18T10:52:18;-0.10;1.00
5130;DHT22;2583;50.946;6.954;2022-12-18T10:54:53;-0.10;1.00
5130;DHT22;2583;50.946;6.954;2022-12-18T10:59:56;0.00;1.00
5130;DHT22;2583;50.946;6.954;2022-12-18T11:02:35;0.10;1.00
5130;DHT22;2583;50.946;6.954;2022-12-18T11:05:22;0.00;1.00
5130;DHT22;2583;50.946;6.954;2022-12-18T11:07:50;0.00;1.00
5130;DHT22;2583;50.946;6.954;2022-12-18T11:10:19;0.10;1.00
5130;DHT22;2583;50.946;6.954;2022-12-18T11:12:46;0.20;1.00
5130;DHT22;2583;50.946;6.954;2022-12-18T11:15:20;0.10;1.00
5130;DHT22;2583;50.946;6.954;2022-12-18T11:17:49;0.10;1.00
5130;DHT22;2583;50.946;6.954;2022-12-18T11:20:34;0.20;1.00
5130;DHT22;2583;50.946;6.954;2022-12-18T11:23:05;0.20;1.00
5130;DHT22;2583;50.946;6.954;2022-12-18T11:25:33;0.20;1.00
5130;DHT22;2583;50.946;6.954;2022-12-18T11:30:49;0.20;1.00
5130;DHT22;2583;50.946;6.954;2022-12-18T11:33:20;0.20;1.00
5130;DHT22;2583;50.946;6.954;2022-12-18T11:35:58;0.20;1.00
5130;DHT22;2583;50.946;6.954;2022-12-18T11:38:35;0.10;1.00
5130;DHT22;2583;50.946;6.954;2022-12-18T11:41:23;0.10;1.00
5130;DHT22;2583;50.946;6.954;2022-12-18T11:44:15;0.10;1.00
5130;DHT22;2583;50.946;6.954;2022-12-18T11:46:51;0.20;1.00
5130;DHT22;2583;50.946;6.954;2022-12-18T11:49:31;0.20;1.00
5130;DHT22;2583;50.946;6.954;2022-12-18T11:52:16;0.20;1.00
5130;DHT22;2583;50.946;6.954;2022-12-18T11:54:44;0.10;1.00
5130;DHT22;2583;50.946;6.954;2022-12-18T11:59:53;0.10;1.00
5130;DHT22;2583;50.946;6.954;2022-12-18T12:16:18;0.20;1.00
5130;DHT22;2583;50.946;6.954;2022-12-18T12:19:29;0.20;1.00
5130;DHT22;2583;50.946;6.954;2022-12-18T12:24:56;0.10;1.00
5130;DHT22;2583;50.946;6.954;2022-12-18T12:27:33;0.00;1.00
5130;DHT22;2583;50.946;6.954;2022-12-18T12:30:16;0.10;1.00
5130;DHT22;2583;50.946;6.954;2022-12-18T12:33:09;0.20;1.00
5130;DHT22;2583;50.946;6.954;2022-12-18T12:35:57;0.20;1.00
5130;DHT22;2583;50.946;6.954;2022-12-18T12:38:35;0.20;1.00
5130;DHT22;2583;50.946;6.954;2022-12-18T12:41:06;0.20;1.00
5130;DHT22;2583;50.946;6.954;2022-12-18T12:43:57;0.20;1.00
5130;DHT22;2583;50.946;6.954;2022-12-18T12:46:26;0.20;1.00
5130;DHT22;2583;50.946;6.954;2022-12-18T12:48:58;0.20;1.00
5130;DHT22;2583;50.946;6.954;2022-12-18T12:51:30;0.30;1.00
5130;DHT22;2583;50.946;6.954;2022-12-18T12:53:59;0.20;1.00
5130;DHT22;2583;50.946;6.954;2022-12-18T12:57:12;0.30;1.00
5130;DHT22;2583;50.946;6.954;2022-12-18T13:00:00;0.20;1.00
5130;DHT22;2583;50.946;6.954;2022-12-18T13:02:41;0.20;1.00
5130;DHT22;2583;50.946;6.954;2022-12-18T13:08:11;0.20;1.00
5130;DHT22;2583;50.946;6.954;2022-12-18T13:10:40;0.30;1.00
5130;DHT22;2583;50.946;6.954;2022-12-18T13:13:12;0.30;1.00
5130;DHT22;2583;50.946;6.954;2022-12-18T13:16:08;0.30;1.00
5130;DHT22;2583;50.946;6.954;2022-12-18T13:18:35;0.30;1.00
5130;DHT22;2583;50.946;6.954;2022-12-18T13:21:25;0.30;1.00
5130;DHT22;2583;50.946;6.954;2022-12-18T13:23:54;0.20;1.00
5130;DHT22;2583;50.946;6.954;2022-12-18T13:28:56;0.20;1.00
5130;DHT22;2583;50.946;6.954;2022-12-18T13:34:48;0.20;1.00
5130;DHT22;2583;50.946;6.954;2022-12-18T13:37:35;0.30;1.00
5130;DHT22;2583;50.946;6.954;2022-12-18T13:46:00;0.40;1.00
5130;DHT22;2583;50.946;6.954;2022-12-18T13:48:29;0.40;1.00
5130;DHT22;2583;50.946;6.954;2022-12-18T13:51:04;0.30;1.00
5130;DHT22;2583;50.946;6.954;2022-12-18T13:53:46;0.30;1.00
5130;DHT22;2583;50.946;6.954;2022-12-18T13:56:18;0.30;1.00
5130;DHT22;2583;50.946;6.954;2022-12-18T13:59:20;0.40;1.00
5130;DHT22;2583;50.946;6.954;2022-12-18T14:01:56;0.30;1.00
5130;DHT22;2583;50.946;6.954;2022-12-18T14:04:28;0.30;1.00
5130;DHT22;2583;50.946;6.954;2022-12-18T14:07:28;0.30;1.00
5130;DHT22;2583;50.946;6.954;2022-12-18T14:10:03;0.20;1.00
5130;DHT22;2583;50.946;6.954;2022-12-18T14:12:51;0.30;1.00
5130;DHT22;2583;50.946;6.954;2022-12-18T14:15:33;0.20;1.00
5130;DHT22;2583;50.946;6.954;2022-12-18T14:18:22;0.20;1.00
5130;DHT22;2583;50.946;6.954;2022-12-18T14:20:58;0.10;1.00
5130;DHT22;2583;50.946;6.954;2022-12-18T14:23:37;0.00;1.00
5130;DHT22;2583;50.946;6.954;2022-12-18T14:28:48;0.00;1.00
5130;DHT22;2583;50.946;6.954;2022-12-18T14:31:20;-0.10;1.00
5130;DHT22;2583;50.946;6.954;2022-12-18T14:33:48;-0.10;1.00
5130;DHT22;2583;50.946;6.954;2022-12-18T14:36:19;-0.10;1.00
5130;DHT22;2583;50.946;6.954;2022-12-18T14:38:57;-0.10;1.00
5130;DHT22;2583;50.946;6.954;2022-12-18T14:41:25;-0.20;1.00
5130;DHT22;2583;50.946;6.954;2022-12-18T14:43:54;-0.30;1.00
5130;DHT22;2583;50.946;6.954;2022-12-18T14:49:05;-0.30;1.00
5130;DHT22;2583;50.946;6.954;2022-12-18T14:51:52;-0.30;1.00
5130;DHT22;2583;50.946;6.954;2022-12-18T14:54:21;-0.30;1.00
5130;DHT22;2583;50.946;6.954;2022-12-18T14:59:25;-0.40;1.00
5130;DHT22;2583;50.946;6.954;2022-12-18T15:04:39;-0.40;1.00
5130;DHT22;2583;50.946;6.954;2022-12-18T15:07:19;-0.50;1.00
5130;DHT22;2583;50.946;6.954;2022-12-18T15:12:48;-0.40;1.00
5130;DHT22;2583;50.946;6.954;2022-12-18T15:20:31;-0.50;1.00
5130;DHT22;2583;50.946;6.954;2022-12-18T15:22:59;-0.50;1.00
5130;DHT22;2583;50.946;6.954;2022-12-18T15:25:35;-0.50;1.00
5130;DHT22;2583;50.946;6.954;2022-12-18T15:36:22;-0.60;1.00
5130;DHT22;2583;50.946;6.954;2022-12-18T15:38:54;-0.60;1.00
5130;DHT22;2583;50.946;6.954;2022-12-18T15:41:35;-0.60;1.00
5130;DHT22;2583;50.946;6.954;2022-12-18T15:44:03;-0.60;1.00
5130;DHT22;2583;50.946;6.954;2022-12-18T15:46:42;-0.70;1.00
5130;DHT22;2583;50.946;6.954;2022-12-18T15:49:09;-0.70;1.00
5130;DHT22;2583;50.946;6.954;2022-12-18T15:51:37;-0.70;1.00
5130;DHT22;2583;50.946;6.954;2022-12-18T15:54:08;-0.70;1.00
5130;DHT22;2583;50.946;6.954;2022-12-18T15:56:36;-0.70;1.00
5130;DHT22;2583;50.946;6.954;2022-12-18T15:59:22;-0.70;1.00
5130;DHT22;2583;50.946;6.954;2022-12-18T16:01:51;-0.70;99.90
5130;DHT22;2583;50.946;6.954;2022-12-18T16:04:21;-0.70;99.90
5130;DHT22;2583;50.946;6.954;2022-12-18T16:06:48;-0.70;1.00
5130;DHT22;2583;50.946;6.954;2022-12-18T16:09:36;-0.70;1.00
5130;DHT22;2583;50.946;6.954;2022-12-18T16:12:04;-0.80;1.00
5130;DHT22;2583;50.946;6.954;2022-12-18T16:14:32;-0.80;27.20
5130;DHT22;2583;50.946;6.954;2022-12-18T16:17:01;-0.80;1.00
5130;DHT22;2583;50.946;6.954;2022-12-18T16:19:29;-0.80;48.00
5130;DHT22;2583;50.946;6.954;2022-12-18T16:21:58;-0.80;99.90
5130;DHT22;2583;50.946;6.954;2022-12-18T16:24:27;-0.80;99.90
5130;DHT22;2583;50.946;6.954;2022-12-18T16:26:57;-0.80;1.00
5130;DHT22;2583;50.946;6.954;2022-12-18T16:29:28;-0.70;99.90
5130;DHT22;2583;50.946;6.954;2022-12-18T16:31:56;-0.80;99.90
5130;DHT22;2583;50.946;6.954;2022-12-18T16:34:31;-0.80;1.00
5130;DHT22;2583;50.946;6.954;2022-12-18T16:37:04;-0.80;27.40
5130;DHT22;2583;50.946;6.954;2022-12-18T16:39:32;-0.80;94.90
5130;DHT22;2583;50.946;6.954;2022-12-18T16:42:02;-0.80;95.90
5130;DHT22;2583;50.946;6.954;2022-12-18T16:44:34;-0.70;96.00
5130;DHT22;2583;50.946;6.954;2022-12-18T16:47:03;-0.70;96.00
5130;DHT22;2583;50.946;6.954;2022-12-18T16:49:30;-0.70;96.70
5130;DHT22;2583;50.946;6.954;2022-12-18T16:51:57;-0.70;96.30
5130;DHT22;2583;50.946;6.954;2022-12-18T16:54:24;-0.70;96.80
5130;DHT22;2583;50.946;6.954;2022-12-18T16:56:51;-0.70;96.60
5130;DHT22;2583;50.946;6.954;2022-12-18T16:59:18;-0.60;96.80
5130;DHT22;2583;50.946;6.954;2022-12-18T17:01:45;-0.60;96.80
5130;DHT22;2583;50.946;6.954;2022-12-18T17:04:13;-0.60;97.10
5130;DHT22;2583;50.946;6.954;2022-12-18T17:06:43;-0.50;97.10
5130;DHT22;2583;50.946;6.954;2022-12-18T17:09:14;-0.60;95.90
5130;DHT22;2583;50.946;6.954;2022-12-18T17:11:42;-0.60;96.40
5130;DHT22;2583;50.946;6.954;2022-12-18T17:14:17;-0.60;96.50
5130;DHT22;2583;50.946;6.954;2022-12-18T17:16:44;-0.60;96.00
5130;DHT22;2583;50.946;6.954;2022-12-18T17:19:13;-0.60;96.30
5130;DHT22;2583;50.946;6.954;2022-12-18T17:21:44;-0.60;96.30
5130;DHT22;2583;50.946;6.954;2022-12-18T17:24:12;-0.60;96.90
5130;DHT22;2583;50.946;6.954;2022-12-18T17:26:39;-0.50;96.80
5130;DHT22;2583;50.946;6.954;2022-12-18T17:29:06;-0.60;96.10
5130;DHT22;2583;50.946;6.954;2022-12-18T17:31:33;-0.60;96.50
5130;DHT22;2583;50.946;6.954;2022-12-18T17:34:02;-0.60;97.10
5130;DHT22;2583;50.946;6.954;2022-12-18T17:36:29;-0.60;96.90
5130;DHT22;2583;50.946;6.954;2022-12-18T17:39:00;-0.60;96.70
5130;DHT22;2583;50.946;6.954;2022-12-18T17:41:28;-0.60;95.90
5130;DHT22;2583;50.946;6.954;2022-12-18T17:43:56;-0.70;96.50
5130;DHT22;2583;50.946;6.954;2022-12-18T17:46:24;-0.70;96.90
5130;DHT22;2583;50.946;6.954;2022-12-18T17:48:54;-0.70;96.90
5130;DHT22;2583;50.946;6.954;2022-12-18T17:51:21;-0.70;97.20
5130;DHT22;2583;50.946;6.954;2022-12-18T17:53:48;-0.70;97.10
5130;DHT22;2583;50.946;6.954;2022-12-18T17:56:17;-0.80;97.10
5130;DHT22;2583;50.946;6.954;2022-12-18T17:58:44;-0.70;97.60
5130;DHT22;2583;50.946;6.954;2022-12-18T18:01:14;-0.80;97.20
5130;DHT22;2583;50.946;6.954;2022-12-18T18:03:42;-0.80;97.90
5130;DHT22;2583;50.946;6.954;2022-12-18T18:06:10;-0.80;97.40
5130;DHT22;2583;50.946;6.954;2022-12-18T18:08:37;-0.80;97.80
5130;DHT22;2583;50.946;6.954;2022-12-18T18:11:06;-0.80;98.50
5130;DHT22;2583;50.946;6.954;2022-12-18T18:13:52;-0.80;98.90
5130;DHT22;2583;50.946;6.954;2022-12-18T18:16:30;-0.80;97.70
5130;DHT22;2583;50.946;6.954;2022-12-18T18:18:59;-0.80;98.50
5130;DHT22;2583;50.946;6.954;2022-12-18T18:21:27;-0.80;98.30
5130;DHT22;2583;50.946;6.954;2022-12-18T18:23:54;-0.80;98.60
5130;DHT22;2583;50.946;6.954;2022-12-18T18:26:24;-0.80;98.60
5130;DHT22;2583;50.946;6.954;2022-12-18T18:28:54;-0.80;98.00
5130;DHT22;2583;50.946;6.954;2022-12-18T18:31:21;-0.80;98.50